createdAt,value
2022-08-12T00:01:14.020Z,19.80
2022-08-12T00:04:00.322Z,19.70
2022-08-12T00:06:47.644Z,19.60
2022-08-12T00:09:33.513Z,19.60
2022-08-12T00:12:20.282Z,19.50
2022-08-12T00:15:08.136Z,19.40
2022-08-12T00:17:54.557Z,19.40
2022-08-12T00:20:40.324Z,19.30
2022-08-12T00:23:26.223Z,19.20
2022-08-12T00:26:23.362Z,19.20
2022-08-12T00:29:12.351Z,19.20
2022-08-12T00:32:00.190Z,19.10
2022-08-12T00:34:51.741Z,19.00
2022-08-12T00:37:41.105Z,19.00
2022-08-12T00:40:31.069Z,19.00
2022-08-12T00:42:59.980Z,18.90
2022-08-12T00:45:47.675Z,18.90
2022-08-12T00:48:17.273Z,18.90
2022-08-12T00:50:47.781Z,18.90
2022-08-12T00:53:19.151Z,18.90
2022-08-12T00:55:47.506Z,18.90
2022-08-12T00:58:22.796Z,18.80
2022-08-12T01:00:51.434Z,18.80
2022-08-12T01:03:20.694Z,18.80
2022-08-12T01:06:10.233Z,18.80
2022-08-12T01:08:56.684Z,18.80
2022-08-12T01:11:31.015Z,18.80
2022-08-12T01:14:00.801Z,18.80
2022-08-12T01:16:29.226Z,18.80
2022-08-12T01:18:58.994Z,18.80
2022-08-12T01:21:51.467Z,18.70
2022-08-12T01:24:46.794Z,18.70
2022-08-12T01:27:15.555Z,18.70
2022-08-12T01:29:44.933Z,18.60
2022-08-12T01:32:17.450Z,18.60
2022-08-12T01:35:07.099Z,18.60
2022-08-12T01:37:45.610Z,18.60
2022-08-12T01:40:34.041Z,18.60
2022-08-12T01:43:09.975Z,18.60
2022-08-12T01:46:07.521Z,18.60
2022-08-12T01:49:02.595Z,18.60
2022-08-12T01:52:14.988Z,18.50
2022-08-12T01:54:38.838Z,18.60
2022-08-12T01:57:58.328Z,18.50
2022-08-12T02:00:55.343Z,18.50
2022-08-12T02:03:30.093Z,18.50
2022-08-12T02:06:20.784Z,18.50
2022-08-12T02:09:10.598Z,18.50
2022-08-12T02:11:56.616Z,18.50
2022-08-12T02:14:51.114Z,18.50
2022-08-12T02:17:55.652Z,18.50
2022-08-12T02:20:51.733Z,18.50
2022-08-12T02:23:24.455Z,18.40
2022-08-12T02:25:55.644Z,18.40
2022-08-12T02:28:23.430Z,18.40
2022-08-12T02:30:51.203Z,18.30
2022-08-12T02:33:19.933Z,18.30
2022-08-12T02:35:48.105Z,18.20
2022-08-12T02:38:16.183Z,18.30
2022-08-12T02:40:47.541Z,18.20
2022-08-12T02:43:35.934Z,18.20
2022-08-12T02:46:14.446Z,18.20
2022-08-12T02:48:55.250Z,18.10
2022-08-12T02:51:34.772Z,18.00
2022-08-12T02:54:06.135Z,17.90
2022-08-12T02:56:40.711Z,17.90
2022-08-12T02:59:10.746Z,17.90
2022-08-12T03:01:48.172Z,17.80
2022-08-12T03:04:32.145Z,17.70
2022-08-12T03:07:18.430Z,17.70
2022-08-12T03:10:04.301Z,17.60
2022-08-12T03:12:43.635Z,17.60
2022-08-12T03:15:20.296Z,17.50
2022-08-12T03:18:24.860Z,17.40
2022-08-12T03:20:42.900Z,17.40
2022-08-12T03:23:29.030Z,17.40
2022-08-12T03:26:02.734Z,17.30
2022-08-12T03:28:51.920Z,17.20
2022-08-12T03:31:22.011Z,17.20
2022-08-12T03:34:02.124Z,17.20
2022-08-12T03:36:35.524Z,17.20
2022-08-12T03:39:17.063Z,17.10
2022-08-12T03:42:07.516Z,17.10
2022-08-12T03:44:58.811Z,17.10
2022-08-12T03:47:50.431Z,17.00
2022-08-12T03:50:37.431Z,17.00
2022-08-12T03:53:25.599Z,16.90
2022-08-12T03:56:11.401Z,16.90
2022-08-12T03:58:58.066Z,17.00
2022-08-12T04:01:27.734Z,16.90
2022-08-12T04:03:55.465Z,17.00
2022-08-12T04:06:34.930Z,17.00
2022-08-12T04:09:15.670Z,17.00
2022-08-12T04:12:03.802Z,17.00
2022-08-12T04:14:32.211Z,17.00
2022-08-12T04:17:00.698Z,17.00
2022-08-12T04:19:28.166Z,17.10
2022-08-12T04:22:00.888Z,17.10
2022-08-12T04:24:38.021Z,17.10
2022-08-12T04:27:10.628Z,17.10
2022-08-12T04:30:20.998Z,17.20
2022-08-12T04:32:27.102Z,17.20
2022-08-12T04:34:55.379Z,17.20
2022-08-12T04:37:23.411Z,17.20
2022-08-12T04:39:51.881Z,17.30
2022-08-12T04:42:20.292Z,17.30
2022-08-12T04:44:48.665Z,17.30
2022-08-12T04:47:17.056Z,17.30
2022-08-12T04:49:46.087Z,17.40
2022-08-12T04:52:14.879Z,17.40
2022-08-12T04:54:43.968Z,17.50
2022-08-12T04:57:11.479Z,17.50
2022-08-12T04:59:47.181Z,17.60
2022-08-12T05:02:22.151Z,17.60
2022-08-12T05:04:52.030Z,17.60
2022-08-12T05:07:20.823Z,17.70
2022-08-12T05:10:00.105Z,17.70
2022-08-12T05:12:39.857Z,17.80
2022-08-12T05:15:18.919Z,17.90
2022-08-12T05:17:56.161Z,18.00
2022-08-12T05:20:27.076Z,18.10
2022-08-12T05:23:17.573Z,18.10
2022-08-12T05:25:46.880Z,18.10
2022-08-12T05:28:16.220Z,18.10
2022-08-12T05:30:45.473Z,18.20
2022-08-12T05:33:15.734Z,18.20
2022-08-12T05:35:45.247Z,18.30
2022-08-12T05:38:32.746Z,18.40
2022-08-12T05:41:01.417Z,18.40
2022-08-12T05:43:29.077Z,18.40
2022-08-12T05:45:56.298Z,18.50
2022-08-12T05:48:24.562Z,18.60
2022-08-12T05:50:53.135Z,18.70
2022-08-12T05:53:20.488Z,18.80
2022-08-12T05:55:47.797Z,18.90
2022-08-12T05:58:15.127Z,18.90
2022-08-12T06:00:42.602Z,19.00
2022-08-12T06:03:10.165Z,19.10
2022-08-12T06:05:43.032Z,19.20
2022-08-12T06:08:24.230Z,19.30
2022-08-12T06:10:51.708Z,19.40
2022-08-12T06:13:28.685Z,19.40
2022-08-12T06:16:07.657Z,19.50
2022-08-12T06:18:35.537Z,19.60
2022-08-12T06:21:02.837Z,19.70
2022-08-12T06:23:30.510Z,19.70
2022-08-12T06:25:58.738Z,19.80
2022-08-12T06:28:28.231Z,19.90
2022-08-12T06:31:24.418Z,20.00
2022-08-12T06:33:57.762Z,20.30
2022-08-12T06:36:30.020Z,20.50
2022-08-12T06:39:00.191Z,20.80
2022-08-12T06:42:04.965Z,21.10
2022-08-12T06:44:33.236Z,21.30
2022-08-12T06:47:00.680Z,21.50
2022-08-12T06:49:35.782Z,21.60
2022-08-12T06:52:04.928Z,21.60
2022-08-12T06:54:34.804Z,21.70
2022-08-12T06:57:04.620Z,21.80
2022-08-12T06:59:35.715Z,21.80
2022-08-12T07:02:02.977Z,21.80
2022-08-12T07:04:38.714Z,21.90
2022-08-12T07:07:08.735Z,22.00
2022-08-12T07:10:04.945Z,22.10
2022-08-12T07:12:27.007Z,22.10
2022-08-12T07:14:57.122Z,22.30
2022-08-12T07:17:24.911Z,22.30
2022-08-12T07:19:53.851Z,22.40
2022-08-12T07:22:23.470Z,22.50
2022-08-12T07:25:10.761Z,22.50
2022-08-12T07:27:42.824Z,22.60
2022-08-12T07:30:10.713Z,22.80
2022-08-12T07:32:38.340Z,22.70
2022-08-12T07:35:06.003Z,22.80
2022-08-12T07:37:33.765Z,23.00
2022-08-12T07:40:01.469Z,23.10
2022-08-12T07:42:29.698Z,23.10
2022-08-12T07:44:57.112Z,23.20
2022-08-12T07:47:27.050Z,23.30
2022-08-12T07:50:03.524Z,23.30
2022-08-12T07:52:38.653Z,23.40
2022-08-12T07:55:06.687Z,23.50
2022-08-12T07:57:35.197Z,23.60
2022-08-12T08:00:05.999Z,23.70
2022-08-12T08:02:37.703Z,23.80
2022-08-12T08:05:05.879Z,23.90
2022-08-12T08:07:33.238Z,24.00
2022-08-12T08:10:02.375Z,24.10
2022-08-12T08:12:49.197Z,24.20
2022-08-12T08:15:16.938Z,24.30
2022-08-12T08:18:02.884Z,24.30
2022-08-12T08:20:34.180Z,24.40
2022-08-12T08:23:08.604Z,24.40
2022-08-12T08:25:38.972Z,24.50
2022-08-12T08:28:12.929Z,24.40
2022-08-12T08:30:43.806Z,24.30
2022-08-12T08:33:24.759Z,24.50
2022-08-12T08:36:02.217Z,24.50
2022-08-12T08:38:33.084Z,24.60
2022-08-12T08:42:19.029Z,24.70
2022-08-12T08:44:11.487Z,24.70
2022-08-12T08:46:40.227Z,24.80
2022-08-12T08:49:08.220Z,24.90
2022-08-12T08:51:35.733Z,25.00
2022-08-12T08:54:03.380Z,25.10
2022-08-12T08:56:31.006Z,25.20
2022-08-12T08:58:58.535Z,25.30
2022-08-12T09:01:37.570Z,25.30
2022-08-12T09:06:58.592Z,25.50
2022-08-12T09:09:34.238Z,25.50
2022-08-12T09:12:36.064Z,25.60
2022-08-12T09:15:07.144Z,25.70
2022-08-12T09:17:55.959Z,25.80
2022-08-12T09:20:32.832Z,25.80
2022-08-12T09:23:08.107Z,25.90
2022-08-12T09:25:49.656Z,26.00
2022-08-12T09:28:18.480Z,26.10
2022-08-12T09:30:48.455Z,26.20
2022-08-12T09:34:25.135Z,26.30
2022-08-12T09:36:05.481Z,26.30
2022-08-12T09:38:35.370Z,26.30
2022-08-12T09:42:35.152Z,26.30
2022-08-12T09:44:38.177Z,26.30
2022-08-12T09:46:59.146Z,26.50
2022-08-12T09:49:27.684Z,26.60
2022-08-12T09:51:55.650Z,26.70
2022-08-12T09:54:34.826Z,26.80
2022-08-12T09:58:44.982Z,26.80
2022-08-12T10:00:17.240Z,27.00
2022-08-12T10:03:01.080Z,27.30
2022-08-12T10:06:27.839Z,27.40
2022-08-12T10:08:22.137Z,27.40
2022-08-12T10:11:09.400Z,27.60
2022-08-12T10:13:50.138Z,27.70
2022-08-12T10:16:22.429Z,28.00
2022-08-12T10:18:53.874Z,28.10
2022-08-12T10:21:37.528Z,28.00
2022-08-12T10:24:08.451Z,28.20
2022-08-12T10:26:58.781Z,28.50
2022-08-12T10:30:40.897Z,28.50
2022-08-12T10:32:44.573Z,28.80
2022-08-12T10:35:16.732Z,28.80
2022-08-12T10:38:38.004Z,28.90
2022-08-12T10:40:37.523Z,29.00
2022-08-12T10:43:23.553Z,29.10
2022-08-12T10:45:53.375Z,29.20
2022-08-12T10:48:34.158Z,29.30
2022-08-12T10:52:04.525Z,29.00
2022-08-12T10:54:00.594Z,29.00
2022-08-12T10:56:35.406Z,29.30
2022-08-12T10:59:10.957Z,29.80
2022-08-12T11:04:18.771Z,30.20
2022-08-12T11:04:39.301Z,30.50
2022-08-12T11:08:38.112Z,31.00
2022-08-12T11:10:01.380Z,30.80
2022-08-12T11:12:57.977Z,31.00
2022-08-12T11:15:24.108Z,31.20
2022-08-12T11:18:03.091Z,30.90
2022-08-12T11:20:31.432Z,30.80
2022-08-12T11:23:04.001Z,31.20
2022-08-12T11:25:58.004Z,31.70
2022-08-12T11:28:33.892Z,31.90
2022-08-12T11:31:04.272Z,31.80
2022-08-12T11:34:05.010Z,31.90
2022-08-12T11:36:21.777Z,32.20
2022-08-12T11:38:51.341Z,32.50
2022-08-12T11:41:27.955Z,32.50
2022-08-12T11:44:36.298Z,32.80
2022-08-12T11:46:52.929Z,33.50
2022-08-12T11:49:31.354Z,33.50
2022-08-12T11:52:03.665Z,32.90
2022-08-12T11:54:32.076Z,32.80
2022-08-12T11:57:03.022Z,32.80
2022-08-12T12:02:39.385Z,32.80
2022-08-12T12:05:07.363Z,33.30
2022-08-12T12:08:37.091Z,33.40
2022-08-12T12:10:26.204Z,33.80
2022-08-12T12:12:54.130Z,34.00
2022-08-12T12:15:25.470Z,34.20
2022-08-12T12:18:30.927Z,33.90
2022-08-12T12:21:01.107Z,34.10
2022-08-12T12:23:29.601Z,33.70
2022-08-12T12:26:07.012Z,34.20
2022-08-12T12:28:37.046Z,34.10
2022-08-12T12:31:15.136Z,34.50
2022-08-12T12:33:58.401Z,34.80
2022-08-12T12:36:30.622Z,35.40
2022-08-12T12:39:00.088Z,35.70
2022-08-12T12:42:43.311Z,36.40
2022-08-12T12:44:25.995Z,36.10
2022-08-12T12:47:03.952Z,36.20
2022-08-12T12:49:53.515Z,36.80
2022-08-12T12:52:21.388Z,36.80
2022-08-12T12:54:57.614Z,36.70
2022-08-12T12:57:36.216Z,37.10
2022-08-12T13:00:16.810Z,36.70
2022-08-12T13:02:53.868Z,37.20
2022-08-12T13:05:42.212Z,37.10
2022-08-12T13:08:35.839Z,37.10
2022-08-12T13:11:06.305Z,37.00
2022-08-12T13:14:07.684Z,36.50
2022-08-12T13:16:26.705Z,36.60
2022-08-12T13:18:54.512Z,37.40
2022-08-12T13:21:32.938Z,37.60
2022-08-12T13:24:10.178Z,38.00
2022-08-12T13:26:40.346Z,38.20
2022-08-12T13:29:11.124Z,38.40
2022-08-12T13:32:19.602Z,39.00
2022-08-12T13:34:34.582Z,39.00
2022-08-12T13:37:09.679Z,39.40
2022-08-12T13:39:39.361Z,39.40
2022-08-12T13:42:13.633Z,39.90
2022-08-12T13:44:41.607Z,40.70
2022-08-12T13:47:19.671Z,41.80
2022-08-12T13:49:54.017Z,42.70
2022-08-12T13:52:23.859Z,43.00
2022-08-12T13:54:56.344Z,43.60
2022-08-12T13:57:26.639Z,44.50
2022-08-12T13:59:55.493Z,45.30
2022-08-12T14:02:27.905Z,45.60
2022-08-12T14:04:56.549Z,46.50
2022-08-12T14:07:26.111Z,46.80
2022-08-12T14:10:16.438Z,46.50
2022-08-12T14:12:54.843Z,46.80
2022-08-12T14:15:37.058Z,47.60
2022-08-12T14:18:31.936Z,48.40
2022-08-12T14:21:10.230Z,48.00
2022-08-12T14:24:04.574Z,48.50
2022-08-12T14:26:33.564Z,48.90
2022-08-12T14:29:02.427Z,48.30
2022-08-12T14:31:31.780Z,47.50
2022-08-12T14:33:59.935Z,46.80
2022-08-12T14:36:27.274Z,46.40
2022-08-12T14:38:56.215Z,47.40
2022-08-12T14:41:36.452Z,47.00
2022-08-12T14:44:57.913Z,47.10
2022-08-12T14:47:01.145Z,47.40
2022-08-12T14:50:34.253Z,47.90
2022-08-12T14:53:11.330Z,48.40
2022-08-12T14:58:01.783Z,47.90
2022-08-12T15:00:50.992Z,45.60
2022-08-12T15:03:46.684Z,44.20
2022-08-12T15:06:39.240Z,43.60
2022-08-12T15:09:07.696Z,44.20
2022-08-12T15:11:54.292Z,41.90
2022-08-12T15:14:30.324Z,41.80
2022-08-12T15:17:00.779Z,42.90
2022-08-12T15:20:11.702Z,44.60
2022-08-12T15:22:38.561Z,46.00
2022-08-12T15:25:07.970Z,46.70
2022-08-12T15:28:04.500Z,47.30
2022-08-12T15:30:31.200Z,47.60
2022-08-12T15:32:59.041Z,47.00
2022-08-12T15:35:38.331Z,46.00
2022-08-12T15:38:20.451Z,46.30
2022-08-12T15:40:50.336Z,46.80
2022-08-12T15:43:51.044Z,46.30
2022-08-12T15:46:08.740Z,43.20
2022-08-12T15:48:47.568Z,40.90
2022-08-12T15:51:59.922Z,40.40
2022-08-12T15:54:33.220Z,41.00
2022-08-12T15:57:03.571Z,42.70
2022-08-12T15:59:51.136Z,43.30
2022-08-12T16:02:18.779Z,44.00
2022-08-12T16:04:50.514Z,44.60
2022-08-12T16:07:25.898Z,45.10
2022-08-12T16:10:06.193Z,45.00
2022-08-12T16:12:50.284Z,43.30
2022-08-12T16:15:25.004Z,43.70
2022-08-12T16:18:15.350Z,44.20
2022-08-12T16:20:46.675Z,43.30
2022-08-12T16:23:36.100Z,43.90
2022-08-12T16:26:14.719Z,43.90
2022-08-12T16:28:44.297Z,42.70
2022-08-12T16:31:22.798Z,40.30
2022-08-12T16:34:00.672Z,38.20
2022-08-12T16:36:29.791Z,36.40
2022-08-12T16:39:01.779Z,36.30
2022-08-12T16:41:37.832Z,37.70
2022-08-12T16:44:08.288Z,38.50
2022-08-12T16:46:37.637Z,39.80
2022-08-12T16:49:13.041Z,40.90
2022-08-12T16:51:46.791Z,41.30
2022-08-12T16:54:17.226Z,42.50
2022-08-12T16:56:54.613Z,42.00
2022-08-12T16:59:22.632Z,42.10
2022-08-12T17:01:51.824Z,41.90
2022-08-12T17:04:19.747Z,43.30
2022-08-12T17:06:52.740Z,42.90
2022-08-12T17:09:20.249Z,42.80
2022-08-12T17:11:49.807Z,42.80
2022-08-12T17:14:20.480Z,43.10
2022-08-12T17:16:52.382Z,42.30
2022-08-12T17:20:02.490Z,42.50
2022-08-12T17:22:09.860Z,42.20
2022-08-12T17:24:39.984Z,41.10
2022-08-12T17:27:16.411Z,40.20
2022-08-12T17:30:03.151Z,40.00
2022-08-12T17:32:33.822Z,40.10
2022-08-12T17:35:21.116Z,40.30
2022-08-12T17:37:54.651Z,39.80
2022-08-12T17:40:35.963Z,39.60
2022-08-12T17:43:55.813Z,39.80
2022-08-12T17:45:59.054Z,39.70
2022-08-12T17:48:34.190Z,38.90
2022-08-12T17:51:15.517Z,39.10
2022-08-12T17:54:11.279Z,38.50
2022-08-12T17:56:37.481Z,38.30
2022-08-12T17:59:07.702Z,37.80
2022-08-12T18:01:36.751Z,37.10
2022-08-12T18:04:22.413Z,36.10
2022-08-12T18:06:52.850Z,35.50
2022-08-12T18:09:24.681Z,34.50
2022-08-12T18:12:24.865Z,34.00
2022-08-12T18:15:00.689Z,33.20
2022-08-12T18:17:29.816Z,32.00
2022-08-12T18:20:06.007Z,31.10
2022-08-12T18:22:35.775Z,30.30
2022-08-12T18:26:09.869Z,29.70
2022-08-12T18:28:15.192Z,29.30
2022-08-12T18:30:53.071Z,28.70
2022-08-12T18:33:25.859Z,28.20
2022-08-12T18:35:55.580Z,27.80
2022-08-12T18:38:25.645Z,27.40
2022-08-12T18:41:20.711Z,27.00
2022-08-12T18:44:02.844Z,26.60
2022-08-12T18:46:59.753Z,26.20
2022-08-12T18:49:39.364Z,25.90
2022-08-12T18:52:11.315Z,25.60
2022-08-12T18:54:49.040Z,25.40
2022-08-12T18:57:46.062Z,25.20
2022-08-12T19:00:21.427Z,24.90
2022-08-12T19:02:51.173Z,24.80
2022-08-12T19:05:18.735Z,24.60
2022-08-12T19:08:01.169Z,24.40
2022-08-12T19:10:31.276Z,24.20
2022-08-12T19:13:21.031Z,24.00
2022-08-12T19:15:50.721Z,23.90
2022-08-12T19:18:18.418Z,23.80
2022-08-12T19:20:50.666Z,23.70
2022-08-12T19:23:21.401Z,23.60
2022-08-12T19:26:00.345Z,23.60
2022-08-12T19:28:35.994Z,23.50
2022-08-12T19:31:55.733Z,23.40
2022-08-12T19:37:38.600Z,23.20
2022-08-12T19:40:32.293Z,23.10
2022-08-12T19:43:19.894Z,22.90
2022-08-12T19:45:56.797Z,22.80
2022-08-12T19:48:30.688Z,22.80
2022-08-12T19:51:01.622Z,22.70
2022-08-12T19:53:57.551Z,22.60
2022-08-12T19:56:28.249Z,22.50
2022-08-12T19:59:19.134Z,22.40
2022-08-12T20:02:02.611Z,22.40
2022-08-12T20:04:38.961Z,22.30
2022-08-12T20:07:23.767Z,22.30
2022-08-12T20:09:53.841Z,22.20
2022-08-12T20:12:30.998Z,22.10
2022-08-12T20:15:11.285Z,22.10
2022-08-12T20:17:50.751Z,22.00
2022-08-12T20:20:27.700Z,21.90
2022-08-12T20:22:55.868Z,21.90
2022-08-12T20:25:28.564Z,21.80
2022-08-12T20:28:10.782Z,21.80
2022-08-12T20:30:53.610Z,21.80
2022-08-12T20:33:32.697Z,21.80
2022-08-12T20:36:41.169Z,21.70
2022-08-12T20:39:06.027Z,21.70
2022-08-12T20:41:58.832Z,21.70
2022-08-12T20:44:27.511Z,21.60
2022-08-12T20:47:16.544Z,21.60
2022-08-12T20:49:54.927Z,21.60
2022-08-12T20:52:29.157Z,21.50
2022-08-12T20:54:57.998Z,21.50
2022-08-12T20:57:38.546Z,21.40
2022-08-12T21:00:18.200Z,21.30
2022-08-12T21:02:50.483Z,21.30
2022-08-12T21:06:09.501Z,21.20
2022-08-12T21:08:26.735Z,21.10
2022-08-12T21:10:58.962Z,21.10
2022-08-12T21:13:27.145Z,21.00
2022-08-12T21:15:59.903Z,20.90
2022-08-12T21:18:29.265Z,20.90
2022-08-12T21:20:59.282Z,20.80
2022-08-12T21:23:30.577Z,20.80
2022-08-12T21:26:16.282Z,20.80
2022-08-12T21:28:56.753Z,20.70
2022-08-12T21:32:40.229Z,20.70
2022-08-12T21:34:19.695Z,20.70
2022-08-12T21:36:50.298Z,20.60
2022-08-12T21:39:22.451Z,20.50
2022-08-12T21:41:54.898Z,20.40
2022-08-12T21:45:46.085Z,20.40
2022-08-12T21:47:21.737Z,20.40
2022-08-12T21:50:03.356Z,20.40
2022-08-12T21:52:41.961Z,20.30
2022-08-12T21:55:17.831Z,20.30
2022-08-12T21:57:54.607Z,20.20
2022-08-12T22:00:36.739Z,20.20
2022-08-12T22:04:07.967Z,20.20
2022-08-12T22:06:30.519Z,20.00
2022-08-12T22:09:15.635Z,20.00
2022-08-12T22:11:56.327Z,19.90
2022-08-12T22:14:28.870Z,19.90
2022-08-12T22:16:57.997Z,19.80
2022-08-12T22:19:26.704Z,19.80
2022-08-12T22:21:58.369Z,19.70
2022-08-12T22:24:30.285Z,19.70
2022-08-12T22:27:17.902Z,19.70
2022-08-12T22:30:16.429Z,19.60
2022-08-12T22:32:50.098Z,19.50
2022-08-12T22:35:55.294Z,19.50
2022-08-12T22:38:25.090Z,19.40
2022-08-12T22:41:00.942Z,19.40
2022-08-12T22:44:00.194Z,19.30
2022-08-12T22:46:32.884Z,19.20
2022-08-12T22:49:00.212Z,19.10
2022-08-12T22:51:42.899Z,19.10
2022-08-12T22:54:36.574Z,19.10
2022-08-12T22:57:12.330Z,19.20
2022-08-12T22:59:55.121Z,19.20
2022-08-12T23:02:28.583Z,19.20
2022-08-12T23:04:59.957Z,19.20
2022-08-12T23:07:36.437Z,19.20
2022-08-12T23:10:15.987Z,19.30
2022-08-12T23:13:05.210Z,19.30
2022-08-12T23:15:34.330Z,19.30
2022-08-12T23:18:01.605Z,19.30
2022-08-12T23:20:29.156Z,19.20
2022-08-12T23:23:02.740Z,19.30
2022-08-12T23:25:32.684Z,19.30
2022-08-12T23:28:37.539Z,19.30
2022-08-12T23:31:06.594Z,19.20
2022-08-12T23:34:02.507Z,19.20
2022-08-12T23:36:31.845Z,19.20
2022-08-12T23:40:06.650Z,19.10
2022-08-12T23:42:17.485Z,19.10
2022-08-12T23:44:48.702Z,19.10
2022-08-12T23:47:22.881Z,19.10
2022-08-12T23:49:57.792Z,19.10
2022-08-12T23:52:33.972Z,19.10
2022-08-12T23:55:23.484Z,19.20
2022-08-12T23:58:21.413Z,19.20
